Time;durP1;ratioP1;P1;durP2;ratioP2;P2;SDS_P1;SDS_P2;PMS_P1;PMS_P2;Temp;Humidity;BMP_temperature;BMP_pressure;BME280_temperature;BME280_humidity;BME280_pressure;Samples;Min_cycle;Max_cycle;Signal;HPM_P1;HPM_P2
2023/01/06 00:01:54;;;;;;;32.45;11.25;;;10.40;99.90;;;;;;5114407;28;20039;-62
2023/01/06 00:04:20;;;;;;;32.28;11.02;;;10.70;99.90;;;;;;5114779;28;20092;-61
2023/01/06 00:06:46;;;;;;;31.92;10.80;;;10.60;99.90;;;;;;5114594;28;20118;-61
2023/01/06 00:09:11;;;;;;;29.08;10.52;;;10.60;99.90;;;;;;5114478;28;20494;-61
2023/01/06 00:11:37;;;;;;;29.45;9.68;;;10.60;99.90;;;;;;5114275;28;20374;-61
2023/01/06 00:14:03;;;;;;;26.83;9.77;;;10.60;99.90;;;;;;5114406;28;20116;-61
2023/01/06 00:16:29;;;;;;;29.85;9.75;;;10.70;99.90;;;;;;5114123;28;20173;-62
2023/01/06 00:18:56;;;;;;;38.75;10.10;;;10.50;99.90;;;;;;5114470;28;20120;-62
2023/01/06 00:21:22;;;;;;;36.63;9.00;;;10.60;99.90;;;;;;5113789;28;20173;-61
2023/01/06 00:23:48;;;;;;;35.78;8.52;;;10.70;99.90;;;;;;5114226;28;20036;-61
2023/01/06 00:26:14;;;;;;;29.75;8.57;;;10.70;99.90;;;;;;5113928;28;20040;-61
2023/01/06 00:28:40;;;;;;;26.25;8.30;;;10.70;99.90;;;;;;5114154;28;20039;-62
2023/01/06 00:31:08;;;;;;;36.45;7.93;;;10.50;99.90;;;;;;5113979;28;20031;-61
2023/01/06 00:33:34;;;;;;;31.35;8.88;;;10.80;99.90;;;;;;5113838;28;20047;-61
2023/01/06 00:36:00;;;;;;;30.23;7.95;;;10.50;99.90;;;;;;5113999;28;20397;-61
2023/01/06 00:38:26;;;;;;;30.88;7.47;;;10.70;99.90;;;;;;5114175;28;20438;-61
2023/01/06 00:40:52;;;;;;;27.10;7.88;;;10.60;99.90;;;;;;5113996;28;20046;-61
2023/01/06 00:43:17;;;;;;;23.10;7.57;;;10.60;99.90;;;;;;5113721;28;20039;-61
2023/01/06 00:45:43;;;;;;;28.60;7.30;;;10.70;99.90;;;;;;5113566;28;20075;-62
2023/01/06 00:48:09;;;;;;;22.88;7.53;;;10.80;99.90;;;;;;5113754;28;20082;-62
2023/01/06 00:50:34;;;;;;;29.67;7.13;;;10.60;99.90;;;;;;5113821;28;20110;-61
2023/01/06 00:53:00;;;;;;;37.35;8.57;;;10.70;99.90;;;;;;5113559;28;20486;-60
2023/01/06 00:55:26;;;;;;;28.17;8.77;;;10.60;99.90;;;;;;5113673;28;20047;-62
2023/01/06 00:57:52;;;;;;;25.42;7.55;;;10.60;99.90;;;;;;5095244;28;20093;-61
2023/01/06 01:00:18;;;;;;;29.58;8.73;;;10.80;99.90;;;;;;5113362;28;20071;-61
2023/01/06 01:02:43;;;;;;;30.45;9.00;;;10.70;99.90;;;;;;5095053;28;20055;-61
2023/01/06 01:05:09;;;;;;;19.80;6.45;;;10.80;99.90;;;;;;5113394;28;20035;-61
2023/01/06 01:07:35;;;;;;;19.30;7.25;;;10.80;99.90;;;;;;5113307;28;20039;-62
2023/01/06 01:10:01;;;;;;;22.10;6.10;;;10.90;99.90;;;;;;5113290;28;20040;-62
2023/01/06 01:12:26;;;;;;;15.43;5.47;;;10.90;99.90;;;;;;5113245;28;20118;-61
2023/01/06 01:14:53;;;;;;;17.98;5.82;;;10.80;99.90;;;;;;5094049;28;20047;-61
2023/01/06 01:17:22;;;;;;;15.48;5.07;;;10.70;99.90;;;;;;5113089;28;20457;-61
2023/01/06 01:19:50;;;;;;;20.65;5.80;;;10.80;99.90;;;;;;5113232;28;20093;-61
2023/01/06 01:22:15;;;;;;;19.52;5.45;;;10.80;99.90;;;;;;5113241;28;20043;-63
2023/01/06 01:24:41;;;;;;;15.93;4.63;;;10.60;99.90;;;;;;5112941;28;20050;-61
2023/01/06 01:27:07;;;;;;;19.55;5.63;;;10.70;99.90;;;;;;5112778;28;20043;-61
2023/01/06 01:29:33;;;;;;;20.63;4.22;;;10.70;99.90;;;;;;5113059;28;20071;-61
2023/01/06 01:31:59;;;;;;;15.90;4.03;;;10.60;99.90;;;;;;5112273;28;20082;-62
2023/01/06 01:34:25;;;;;;;13.88;3.60;;;10.70;99.90;;;;;;5113062;28;20051;-62
2023/01/06 01:36:52;;;;;;;13.77;3.65;;;10.70;99.90;;;;;;5113104;28;20040;-62
2023/01/06 01:39:21;;;;;;;12.52;3.70;;;10.60;99.90;;;;;;5112843;28;20048;-62
2023/01/06 01:41:47;;;;;;;15.55;3.38;;;10.60;99.90;;;;;;5113070;28;20154;-61
2023/01/06 01:44:50;;;;;;;12.68;4.00;;;10.70;99.90;;;;;;5112815;28;20076;-61
2023/01/06 01:47:52;;;;;;;12.48;4.05;;;10.70;99.90;;;;;;5112546;28;20127;-62
2023/01/06 01:50:23;;;;;;;10.85;3.55;;;10.60;99.90;;;;;;5112506;28;20110;-61
2023/01/06 01:52:51;;;;;;;13.57;3.53;;;10.60;99.90;;;;;;5094454;28;20435;-62
2023/01/06 01:55:18;;;;;;;10.73;3.85;;;10.60;99.90;;;;;;5112695;28;20055;-61
2023/01/06 01:57:54;;;;;;;13.15;3.60;;;10.60;99.90;;;;;;5112519;28;20062;-61
2023/01/06 02:00:20;;;;;;;13.30;4.00;;;10.70;99.90;;;;;;5112643;28;20394;-61
2023/01/06 02:02:46;;;;;;;9.32;3.92;;;10.60;99.90;;;;;;5112352;28;20051;-62
2023/01/06 02:05:15;;;;;;;9.60;3.33;;;10.70;99.90;;;;;;5112494;28;20371;-62
2023/01/06 02:07:41;;;;;;;11.68;3.88;;;10.60;99.90;;;;;;5112563;28;20877;-61
2023/01/06 02:10:16;;;;;;;13.38;4.68;;;10.60;99.90;;;;;;5112519;28;20043;-61
2023/01/06 02:12:45;;;;;;;12.57;4.13;;;10.70;99.90;;;;;;5112369;28;20047;-61
2023/01/06 02:15:27;;;;;;;11.02;4.22;;;10.60;99.90;;;;;;5094104;28;20039;-62
2023/01/06 02:18:28;;;;;;;16.83;5.30;;;10.60;99.90;;;;;;5094303;28;20073;-61
2023/01/06 02:21:35;;;;;;;15.77;4.20;;;10.70;99.90;;;;;;5112091;28;20544;-61
2023/01/06 02:24:48;;;;;;;12.38;4.18;;;10.60;99.90;;;;;;5009653;28;20046;-62
2023/01/06 02:27:40;;;;;;;12.30;4.72;;;10.60;99.90;;;;;;4951355;29;20066;-62
2023/01/06 02:30:26;;;;;;;13.35;4.45;;;10.60;99.90;;;;;;4951690;29;20039;-61
2023/01/06 02:33:21;;;;;;;9.07;3.85;;;10.70;99.90;;;;;;4951340;29;20517;-62
2023/01/06 02:35:49;;;;;;;11.80;3.65;;;10.50;99.90;;;;;;4951426;29;20102;-62
2023/01/06 02:38:47;;;;;;;13.40;3.90;;;10.60;99.90;;;;;;4951414;29;20051;-61
2023/01/06 02:41:37;;;;;;;11.35;3.45;;;10.70;99.90;;;;;;4951293;29;20088;-61
2023/01/06 02:44:16;;;;;;;12.15;4.13;;;10.60;99.90;;;;;;4953998;28;20094;-62
2023/01/06 02:46:59;;;;;;;5.65;3.58;;;10.60;99.90;;;;;;4954951;29;20062;-61
2023/01/06 02:49:56;;;;;;;11.27;3.60;;;10.60;99.90;;;;;;4955193;29;20043;-62
2023/01/06 02:52:35;;;;;;;13.38;4.45;;;10.60;99.90;;;;;;4955052;29;20038;-62
2023/01/06 02:55:22;;;;;;;13.13;4.32;;;10.60;99.90;;;;;;4954946;29;20054;-61
2023/01/06 02:57:54;;;;;;;12.35;3.60;;;10.60;99.90;;;;;;4955116;29;20046;-62
2023/01/06 03:00:33;;;;;;;12.13;4.18;;;10.70;99.90;;;;;;5013715;28;20122;-61
2023/01/06 03:03:03;;;;;;;11.27;3.70;;;10.70;99.90;;;;;;5097727;28;20048;-62
2023/01/06 03:05:31;;;;;;;10.88;3.38;;;10.70;99.90;;;;;;5115686;28;20292;-62
2023/01/06 03:08:01;;;;;;;10.63;3.72;;;10.60;99.90;;;;;;5115609;28;20043;-62
2023/01/06 03:10:28;;;;;;;11.32;3.63;;;10.70;99.90;;;;;;5115785;28;20177;-62
2023/01/06 03:13:07;;;;;;;9.50;3.55;;;10.70;99.90;;;;;;5115620;28;20032;-61
2023/01/06 03:15:33;;;;;;;6.68;3.22;;;10.60;99.90;;;;;;5115484;28;20511;-62
2023/01/06 03:17:59;;;;;;;8.43;2.80;;;10.70;99.90;;;;;;5097743;28;20046;-61
2023/01/06 03:20:24;;;;;;;10.93;3.60;;;10.60;99.90;;;;;;5115503;28;20035;-62
2023/01/06 03:22:50;;;;;;;11.93;3.30;;;10.60;99.90;;;;;;5115480;28;20043;-61
2023/01/06 03:25:16;;;;;;;10.40;3.70;;;10.60;99.90;;;;;;5115443;28;20117;-61
2023/01/06 03:27:42;;;;;;;10.35;3.78;;;10.50;99.90;;;;;;5096825;28;20050;-61
2023/01/06 03:30:10;;;;;;;8.95;3.38;;;10.60;99.90;;;;;;5115152;28;20027;-61
2023/01/06 03:32:48;;;;;;;6.70;3.03;;;10.60;99.90;;;;;;5115244;28;20056;-61
2023/01/06 03:35:35;;;;;;;11.05;4.75;;;10.60;99.90;;;;;;5115136;28;20106;-61
2023/01/06 03:38:22;;;;;;;9.50;3.50;;;10.60;99.90;;;;;;5115229;28;20040;-61
2023/01/06 03:41:01;;;;;;;11.43;3.55;;;10.50;99.90;;;;;;5115397;28;20495;-61
2023/01/06 03:44:05;;;;;;;8.95;4.05;;;10.50;99.90;;;;;;5114973;28;20489;-61
2023/01/06 03:46:38;;;;;;;5.28;3.30;;;10.50;99.90;;;;;;5114984;28;20046;-62
2023/01/06 03:49:04;;;;;;;4.47;3.10;;;10.50;99.90;;;;;;5114788;28;20035;-62
2023/01/06 03:51:35;;;;;;;7.97;4.05;;;10.50;99.90;;;;;;5114832;28;20036;-61
2023/01/06 03:54:08;;;;;;;8.07;3.90;;;10.50;99.90;;;;;;5114420;28;20032;-62
2023/01/06 03:56:55;;;;;;;9.60;3.40;;;10.60;99.90;;;;;;5114468;28;20047;-61
2023/01/06 03:59:25;;;;;;;8.43;4.20;;;10.50;99.90;;;;;;5114854;28;20047;-62
2023/01/06 04:01:50;;;;;;;9.55;4.20;;;10.50;99.90;;;;;;5114514;28;20514;-62
2023/01/06 04:04:17;;;;;;;12.48;4.68;;;10.50;99.90;;;;;;5114730;28;20043;-61
2023/01/06 04:06:43;;;;;;;8.82;4.75;;;10.50;99.90;;;;;;5114693;28;20086;-61
2023/01/06 04:09:08;;;;;;;6.68;4.72;;;10.60;99.90;;;;;;5114714;28;20074;-62
2023/01/06 04:14:18;;;;;;;8.02;5.88;;;10.60;99.90;;;;;;5114590;28;20040;-62
2023/01/06 04:16:44;;;;;;;9.05;5.78;;;10.60;99.90;;;;;;5114369;28;20038;-61
2023/01/06 04:19:09;;;;;;;7.43;5.28;;;10.50;99.90;;;;;;5114437;28;20439;-61
2023/01/06 04:21:35;;;;;;;8.20;5.82;;;10.50;99.90;;;;;;5114279;28;20054;-61
2023/01/06 04:24:01;;;;;;;9.98;5.95;;;10.60;99.90;;;;;;5114258;28;20031;-61
2023/01/06 04:26:26;;;;;;;9.57;5.45;;;10.50;99.90;;;;;;5113898;28;20039;-61
2023/01/06 04:28:52;;;;;;;9.95;5.00;;;10.50;99.90;;;;;;5095473;28;20047;-61
2023/01/06 04:31:18;;;;;;;10.00;5.80;;;10.60;99.90;;;;;;5114123;28;20039;-61
2023/01/06 04:33:43;;;;;;;7.82;5.05;;;10.50;99.90;;;;;;5111741;28;20051;-62
2023/01/06 04:36:09;;;;;;;7.15;4.88;;;10.50;99.90;;;;;;5114036;28;20543;-62
2023/01/06 04:38:35;;;;;;;11.07;4.53;;;10.50;99.90;;;;;;5113854;28;20482;-61
2023/01/06 04:41:00;;;;;;;7.57;4.13;;;10.60;99.90;;;;;;5113885;28;20371;-61
2023/01/06 04:43:26;;;;;;;7.05;3.78;;;10.60;99.90;;;;;;5114327;28;20046;-62
2023/01/06 04:45:52;;;;;;;7.40;3.75;;;10.60;99.90;;;;;;5113870;28;20043;-62
2023/01/06 04:48:18;;;;;;;7.63;3.95;;;10.50;99.90;;;;;;5113797;28;20031;-61
2023/01/06 04:50:43;;;;;;;7.82;3.70;;;10.50;99.90;;;;;;5113595;28;20458;-61
2023/01/06 04:53:11;;;;;;;3.97;3.15;;;10.60;99.90;;;;;;5113813;28;20043;-61
2023/01/06 04:55:38;;;;;;;5.78;3.42;;;10.60;99.90;;;;;;5113560;28;20512;-61
2023/01/06 04:58:04;;;;;;;4.82;3.30;;;10.60;99.90;;;;;;5113383;28;20114;-62
2023/01/06 05:00:29;;;;;;;7.53;3.33;;;10.60;99.90;;;;;;5113618;28;20481;-62
2023/01/06 05:02:55;;;;;;;8.40;3.17;;;10.60;99.90;;;;;;5113627;28;20035;-62
2023/01/06 05:05:21;;;;;;;5.13;2.88;;;10.60;99.90;;;;;;5113603;28;20161;-61
2023/01/06 05:07:46;;;;;;;5.25;2.60;;;10.60;99.90;;;;;;5113252;28;20039;-61
2023/01/06 05:10:12;;;;;;;9.63;3.22;;;10.50;99.90;;;;;;5095184;28;20032;-62
2023/01/06 05:12:38;;;;;;;8.27;3.22;;;10.60;99.90;;;;;;5113391;28;20036;-61
2023/01/06 05:15:04;;;;;;;6.05;3.40;;;10.60;99.90;;;;;;5113336;28;20420;-60
2023/01/06 05:17:30;;;;;;;4.93;3.10;;;10.60;99.90;;;;;;5113351;28;20120;-61
2023/01/06 05:19:55;;;;;;;8.30;3.00;;;10.70;99.90;;;;;;5113230;28;20449;-62
2023/01/06 05:22:21;;;;;;;3.67;2.45;;;10.60;99.90;;;;;;5113112;28;20093;-61
2023/01/06 05:24:46;;;;;;;7.80;2.78;;;10.70;99.90;;;;;;5112942;28;20543;-62
2023/01/06 05:27:12;;;;;;;4.63;2.30;;;10.60;99.90;;;;;;5113172;28;20044;-61
2023/01/06 05:29:38;;;;;;;6.93;2.15;;;10.60;99.90;;;;;;5113360;28;20426;-61
2023/01/06 05:32:05;;;;;;;5.82;2.80;;;10.60;99.90;;;;;;5113283;28;20042;-61
2023/01/06 05:34:30;;;;;;;4.50;2.65;;;10.60;99.90;;;;;;5112823;28;20039;-62
2023/01/06 05:36:56;;;;;;;6.70;2.90;;;10.60;99.90;;;;;;5112602;28;20070;-61
2023/01/06 05:39:22;;;;;;;10.05;4.10;;;10.70;99.90;;;;;;5094339;28;20501;-62
2023/01/06 05:41:48;;;;;;;6.60;3.75;;;10.60;99.90;;;;;;5112605;28;20063;-61
2023/01/06 05:44:14;;;;;;;6.65;3.55;;;10.50;99.90;;;;;;5112775;28;20538;-62
2023/01/06 05:46:39;;;;;;;6.13;4.07;;;10.60;99.90;;;;;;5112668;28;20075;-61
2023/01/06 05:49:05;;;;;;;5.78;4.63;;;10.60;99.90;;;;;;5094671;28;20114;-61
2023/01/06 05:51:31;;;;;;;5.82;4.93;;;10.60;99.90;;;;;;5112599;28;20081;-61
2023/01/06 05:53:56;;;;;;;8.02;5.20;;;10.50;99.90;;;;;;5093933;28;20101;-62
2023/01/06 05:56:22;;;;;;;8.40;6.32;;;10.50;99.90;;;;;;5093204;28;20068;-62
2023/01/06 05:58:51;;;;;;;7.50;5.90;;;10.50;99.90;;;;;;5111129;28;20389;-61
2023/01/06 06:01:24;;;;;;;8.65;6.32;;;10.40;99.90;;;;;;5112448;28;20552;-61
2023/01/06 06:03:50;;;;;;;10.13;6.43;;;10.40;99.90;;;;;;5112729;28;20039;-61
2023/01/06 06:06:17;;;;;;;10.45;7.10;;;10.30;99.90;;;;;;5112131;28;20119;-61
2023/01/06 06:08:42;;;;;;;7.72;6.93;;;10.40;99.90;;;;;;5093386;28;20083;-61
2023/01/06 06:11:12;;;;;;;9.20;6.72;;;10.30;99.90;;;;;;5112416;28;20067;-62
2023/01/06 06:13:38;;;;;;;12.13;8.52;;;10.20;99.90;;;;;;5112387;28;20043;-61
2023/01/06 06:16:08;;;;;;;8.57;7.43;;;10.20;99.90;;;;;;5112088;28;20402;-62
2023/01/06 06:18:39;;;;;;;10.00;6.88;;;10.10;99.90;;;;;;5111702;28;20035;-61
2023/01/06 06:21:05;;;;;;;11.43;7.60;;;10.20;99.90;;;;;;5112333;28;20035;-62
2023/01/06 06:23:31;;;;;;;10.88;7.45;;;10.20;99.90;;;;;;5112358;28;20092;-61
2023/01/06 06:25:57;;;;;;;8.63;6.80;;;10.00;99.90;;;;;;5111813;28;20050;-61
2023/01/06 06:28:23;;;;;;;11.52;7.30;;;10.00;99.90;;;;;;5111968;28;20042;-62
2023/01/06 06:30:48;;;;;;;9.82;6.60;;;10.00;99.90;;;;;;5111993;28;20424;-61
2023/01/06 06:33:14;;;;;;;7.90;6.40;;;10.00;99.90;;;;;;5111731;28;20489;-62
2023/01/06 06:35:40;;;;;;;7.68;6.43;;;10.00;99.90;;;;;;5112103;28;20118;-62
2023/01/06 06:38:05;;;;;;;9.70;6.72;;;9.90;99.90;;;;;;5112029;28;20032;-62
2023/01/06 06:40:31;;;;;;;8.80;6.70;;;10.10;99.90;;;;;;5111775;28;20036;-61
2023/01/06 06:42:57;;;;;;;11.50;6.75;;;9.90;99.90;;;;;;5111711;28;20077;-60
2023/01/06 06:45:22;;;;;;;7.68;6.30;;;10.00;99.90;;;;;;5093764;28;20389;-61
2023/01/06 06:47:52;;;;;;;8.27;6.07;;;10.00;99.90;;;;;;5111045;28;20466;-60
2023/01/06 06:50:17;;;;;;;10.98;6.72;;;10.00;99.90;;;;;;5111618;28;20481;-61
2023/01/06 06:52:43;;;;;;;7.07;6.30;;;9.90;99.90;;;;;;5112121;28;20039;-61
2023/01/06 06:55:09;;;;;;;7.60;6.13;;;10.00;99.90;;;;;;5111263;28;20032;-61
2023/01/06 06:57:34;;;;;;;8.82;6.57;;;9.90;99.90;;;;;;5110875;28;20093;-61
2023/01/06 07:00:00;;;;;;;7.63;6.10;;;10.20;99.90;;;;;;5110583;28;20040;-61
2023/01/06 07:02:25;;;;;;;9.23;5.85;;;9.90;99.90;;;;;;5111914;28;20043;-61
2023/01/06 07:04:51;;;;;;;9.20;5.47;;;10.10;99.90;;;;;;5111771;28;20082;-61
2023/01/06 07:07:16;;;;;;;7.53;4.88;;;9.80;99.90;;;;;;5112100;28;20467;-61
2023/01/06 07:09:42;;;;;;;7.03;4.78;;;10.10;99.90;;;;;;5112039;28;20400;-62
2023/01/06 07:12:08;;;;;;;10.75;5.35;;;10.00;99.90;;;;;;5111589;28;20035;-62
2023/01/06 07:14:33;;;;;;;9.32;5.65;;;10.10;99.90;;;;;;5111781;28;20048;-61
2023/01/06 07:17:03;;;;;;;8.52;5.78;;;9.90;99.90;;;;;;5111640;28;20038;-61
2023/01/06 07:19:29;;;;;;;5.45;4.00;;;10.10;99.90;;;;;;5111529;28;20435;-61
2023/01/06 07:21:54;;;;;;;6.93;4.60;;;10.10;99.90;;;;;;5111639;28;20040;-61
2023/01/06 07:24:20;;;;;;;4.82;3.33;;;10.00;99.90;;;;;;5110682;28;20042;-61
2023/01/06 07:26:46;;;;;;;6.88;3.83;;;9.90;99.90;;;;;;5110771;28;20050;-62
2023/01/06 07:29:11;;;;;;;4.50;3.63;;;10.10;99.90;;;;;;5111679;28;20054;-61
2023/01/06 07:31:37;;;;;;;6.22;3.30;;;10.00;99.90;;;;;;5114433;28;20043;-62
2023/01/06 07:34:02;;;;;;;3.10;2.70;;;10.10;99.90;;;;;;5114836;28;20122;-61
2023/01/06 07:36:28;;;;;;;6.50;2.88;;;10.00;99.90;;;;;;5115218;28;20473;-61
2023/01/06 07:38:53;;;;;;;3.55;2.45;;;10.00;99.90;;;;;;5115126;28;20478;-61
2023/01/06 07:41:19;;;;;;;3.30;2.00;;;10.10;99.90;;;;;;5115022;28;20077;-62
2023/01/06 07:43:45;;;;;;;4.47;2.25;;;10.20;99.90;;;;;;5114758;28;20031;-61
2023/01/06 07:46:11;;;;;;;3.70;1.30;;;10.00;99.90;;;;;;5114964;28;20466;-61
2023/01/06 07:48:37;;;;;;;5.43;1.50;;;10.00;99.90;;;;;;5096568;28;20058;-61
2023/01/06 07:51:03;;;;;;;4.97;1.80;;;9.90;99.90;;;;;;5096895;28;20039;-61
2023/01/06 07:53:28;;;;;;;11.05;2.90;;;10.00;99.90;;;;;;5115266;28;20315;-61
2023/01/06 07:55:54;;;;;;;2.83;1.20;;;9.90;99.90;;;;;;5113976;28;20466;-61
2023/01/06 07:58:22;;;;;;;5.40;1.20;;;9.80;99.90;;;;;;5096656;28;20038;-61
2023/01/06 08:00:49;;;;;;;2.72;0.85;;;9.80;99.90;;;;;;5114538;28;20039;-61
2023/01/06 08:03:15;;;;;;;6.93;1.92;;;9.70;99.90;;;;;;5114246;28;20047;-61
2023/01/06 08:05:41;;;;;;;5.10;1.25;;;9.70;99.90;;;;;;5096706;28;20031;-61
2023/01/06 08:08:08;;;;;;;6.72;0.90;;;9.50;99.90;;;;;;5114358;28;20059;-62
2023/01/06 08:10:37;;;;;;;4.80;1.10;;;9.40;99.90;;;;;;5114230;28;20496;-61
2023/01/06 08:13:02;;;;;;;7.18;1.15;;;9.30;99.90;;;;;;5096280;28;20043;-59
2023/01/06 08:15:28;;;;;;;3.42;1.35;;;9.20;99.90;;;;;;5114438;28;20557;-60
2023/01/06 08:17:54;;;;;;;6.47;1.15;;;9.10;99.90;;;;;;5114099;28;20130;-60
2023/01/06 08:20:20;;;;;;;8.07;1.20;;;9.10;99.90;;;;;;5114474;28;20079;-60
2023/01/06 08:22:46;;;;;;;3.38;0.90;;;9.10;99.90;;;;;;5114308;28;20432;-60
2023/01/06 08:25:12;;;;;;;5.18;1.05;;;9.00;99.90;;;;;;5113602;28;20044;-60
2023/01/06 08:27:37;;;;;;;4.07;0.73;;;9.00;99.90;;;;;;5114053;28;20119;-59
2023/01/06 08:30:04;;;;;;;6.32;1.70;;;8.90;99.90;;;;;;5114013;28;20436;-60
2023/01/06 08:32:30;;;;;;;4.53;0.88;;;8.90;99.90;;;;;;5095880;28;20072;-60
2023/01/06 08:34:55;;;;;;;3.75;0.70;;;8.90;99.90;;;;;;5095970;28;20043;-60
2023/01/06 08:37:21;;;;;;;6.97;1.73;;;8.90;99.90;;;;;;5113915;28;20084;-61
2023/01/06 08:39:47;;;;;;;4.65;0.95;;;8.80;99.90;;;;;;5095639;28;20054;-60
2023/01/06 08:42:13;;;;;;;4.63;1.00;;;8.70;99.90;;;;;;5094817;28;20482;-60
2023/01/06 08:44:39;;;;;;;4.72;1.00;;;8.70;99.90;;;;;;5113862;28;20035;-60
2023/01/06 08:47:05;;;;;;;7.40;1.30;;;8.60;99.90;;;;;;5113738;28;20044;-60
2023/01/06 08:49:30;;;;;;;7.30;1.40;;;8.70;99.90;;;;;;5113919;28;20054;-60
2023/01/06 08:51:56;;;;;;;8.85;1.80;;;8.70;99.90;;;;;;5113972;28;20481;-60
2023/01/06 08:54:22;;;;;;;7.75;1.17;;;8.70;99.90;;;;;;5113071;28;20035;-60
2023/01/06 08:56:47;;;;;;;4.07;1.52;;;8.60;99.90;;;;;;5113492;28;20084;-60
2023/01/06 08:59:15;;;;;;;8.45;1.70;;;8.60;99.90;;;;;;5113393;28;20039;-60
2023/01/06 09:01:42;;;;;;;7.13;1.27;;;8.70;99.90;;;;;;5113407;28;20487;-60
2023/01/06 09:04:10;;;;;;;9.05;0.82;;;8.70;99.90;;;;;;5113458;28;20039;-60
2023/01/06 09:06:36;;;;;;;16.17;1.83;;;8.80;99.90;;;;;;5113248;28;20044;-60
2023/01/06 09:09:04;;;;;;;5.20;1.13;;;8.70;99.90;;;;;;5113083;28;20522;-60
2023/01/06 09:11:30;;;;;;;10.63;1.27;;;8.70;99.90;;;;;;5113214;28;20036;-60
2023/01/06 09:13:55;;;;;;;6.75;1.30;;;8.70;99.90;;;;;;5113169;28;20040;-59
2023/01/06 09:16:21;;;;;;;6.60;2.42;;;8.70;99.90;;;;;;5113095;28;20128;-60
2023/01/06 09:18:48;;;;;;;13.02;1.98;;;8.70;99.90;;;;;;5113412;28;20039;-60
2023/01/06 09:21:20;;;;;;;9.38;1.52;;;8.70;99.90;;;;;;5112950;28;20043;-60
2023/01/06 09:23:46;;;;;;;8.60;1.25;;;8.60;99.90;;;;;;5095021;28;20035;-61
2023/01/06 09:26:15;;;;;;;13.18;2.13;;;8.60;99.90;;;;;;5112605;28;20552;-61
2023/01/06 09:28:41;;;;;;;15.15;1.80;;;8.60;99.90;;;;;;5113095;28;20575;-61
2023/01/06 09:31:08;;;;;;;12.25;2.40;;;8.60;99.90;;;;;;5112935;28;20093;-61
2023/01/06 09:33:34;;;;;;;9.65;1.60;;;8.70;99.90;;;;;;5113167;28;20051;-60
2023/01/06 09:35:59;;;;;;;9.05;2.30;;;8.70;99.90;;;;;;5112905;28;20039;-60
2023/01/06 09:38:26;;;;;;;14.90;1.92;;;8.70;99.90;;;;;;5112816;28;20046;-60
2023/01/06 09:40:58;;;;;;;10.90;2.10;;;8.70;99.90;;;;;;5112479;28;20042;-60
2023/01/06 09:43:58;;;;;;;17.63;2.72;;;8.70;99.90;;;;;;5112863;28;20043;-60
2023/01/06 09:46:30;;;;;;;11.55;2.10;;;8.80;99.90;;;;;;5112663;28;20143;-61
2023/01/06 09:49:13;;;;;;;7.40;1.52;;;8.80;99.90;;;;;;5112192;28;20035;-60
2023/01/06 09:51:39;;;;;;;16.27;2.33;;;8.90;99.90;;;;;;5112617;28;20035;-60
2023/01/06 09:54:11;;;;;;;12.57;2.67;;;9.00;99.90;;;;;;5093612;28;20058;-60
2023/01/06 09:56:41;;;;;;;12.35;2.25;;;9.00;99.90;;;;;;5112311;28;20102;-60
2023/01/06 09:59:20;;;;;;;13.70;2.10;;;9.40;99.90;;;;;;5112534;28;20110;-60
2023/01/06 10:01:48;;;;;;;15.15;2.60;;;9.20;99.90;;;;;;5112235;28;20047;-61
2023/01/06 10:04:23;;;;;;;10.65;1.58;;;9.20;99.90;;;;;;5094145;28;20058;-61
2023/01/06 10:07:03;;;;;;;8.25;1.52;;;9.30;99.90;;;;;;5112462;28;20039;-60
2023/01/06 10:09:31;;;;;;;13.60;1.75;;;9.20;99.90;;;;;;5112193;28;20381;-60
2023/01/06 10:12:21;;;;;;;12.45;2.08;;;9.20;99.90;;;;;;5112210;28;20050;-60
2023/01/06 10:15:05;;;;;;;11.32;2.72;;;9.20;99.90;;;;;;5112149;28;20044;-61
2023/01/06 10:17:48;;;;;;;12.43;1.98;;;9.30;99.90;;;;;;5112189;28;20431;-61
2023/01/06 10:20:29;;;;;;;16.35;2.38;;;9.20;99.90;;;;;;5112025;28;20062;-60
2023/01/06 10:23:24;;;;;;;13.90;2.67;;;9.30;99.90;;;;;;5112258;28;20130;-60
2023/01/06 10:25:53;;;;;;;19.35;3.47;;;9.30;99.90;;;;;;5111968;28;20035;-60
2023/01/06 10:28:30;;;;;;;14.05;1.95;;;9.50;99.90;;;;;;5111948;28;20104;-61
2023/01/06 10:31:07;;;;;;;7.45;1.83;;;9.40;99.90;;;;;;5111845;28;20036;-60
2023/01/06 10:33:37;;;;;;;9.23;1.85;;;9.50;99.90;;;;;;5093278;28;20052;-60
2023/01/06 10:36:09;;;;;;;15.98;2.15;;;9.60;99.90;;;;;;5112077;28;20097;-61
2023/01/06 10:38:41;;;;;;;14.82;2.22;;;9.60;99.90;;;;;;5111368;28;20035;-60
2023/01/06 10:41:27;;;;;;;11.57;2.33;;;9.70;99.90;;;;;;5112076;28;20600;-60
2023/01/06 10:43:53;;;;;;;8.13;1.10;;;9.60;99.90;;;;;;5009512;28;20096;-60
2023/01/06 10:46:19;;;;;;;7.43;1.52;;;9.70;99.90;;;;;;5009371;28;20435;-60
2023/01/06 10:48:48;;;;;;;10.15;1.40;;;9.70;99.90;;;;;;5009419;28;20069;-60
2023/01/06 10:51:34;;;;;;;6.32;1.35;;;9.60;99.90;;;;;;5009722;28;20041;-61
2023/01/06 10:54:13;;;;;;;12.23;2.33;;;9.60;99.90;;;;;;5009471;28;20046;-60
2023/01/06 10:56:44;;;;;;;13.98;2.17;;;9.60;99.90;;;;;;5009234;28;20053;-61
2023/01/06 10:59:10;;;;;;;24.83;2.85;;;9.70;99.90;;;;;;5009429;28;20538;-60
2023/01/06 11:01:50;;;;;;;10.50;1.85;;;9.90;99.90;;;;;;5009509;28;20050;-61
2023/01/06 11:04:17;;;;;;;;;;;9.90;99.90;;;;;;5010887;28;20049;-61
2023/01/06 11:07:02;;;;;;;9.85;1.30;;;9.80;99.90;;;;;;5013207;28;19921;-60
2023/01/06 11:09:40;;;;;;;8.85;1.40;;;10.00;99.90;;;;;;4997097;28;20085;-61
2023/01/06 11:12:27;;;;;;;11.35;1.80;;;10.00;99.90;;;;;;4997149;28;20136;-61
2023/01/06 11:15:01;;;;;;;10.90;1.88;;;10.00;99.90;;;;;;5013065;28;20057;-61
2023/01/06 11:17:28;;;;;;;11.02;2.35;;;10.10;99.90;;;;;;4996716;28;20111;-61
2023/01/06 11:20:08;;;;;;;8.18;1.58;;;10.10;99.90;;;;;;5018691;28;20037;-60
2023/01/06 11:22:37;;;;;;;8.52;1.40;;;10.10;99.90;;;;;;5097239;28;20062;-61
2023/01/06 11:25:18;;;;;;;9.75;2.00;;;10.10;99.90;;;;;;5115233;28;20050;-60
2023/01/06 11:27:48;;;;;;;10.68;1.70;;;10.00;99.90;;;;;;5113574;28;20035;-60
2023/01/06 11:30:26;;;;;;;11.93;1.65;;;10.10;99.90;;;;;;5113184;28;20106;-61
2023/01/06 11:32:53;;;;;;;9.30;1.55;;;10.10;99.90;;;;;;5115045;28;20051;-60
2023/01/06 11:35:20;;;;;;;13.45;2.75;;;10.10;99.90;;;;;;5115037;28;20040;-60
2023/01/06 11:37:46;;;;;;;8.90;2.33;;;10.10;99.90;;;;;;5115223;28;20046;-61
2023/01/06 11:40:33;;;;;;;8.25;2.22;;;10.20;99.90;;;;;;5115131;28;20464;-61
2023/01/06 11:43:05;;;;;;;10.00;2.05;;;10.30;99.90;;;;;;5114942;28;20050;-61
2023/01/06 11:45:35;;;;;;;12.75;2.47;;;10.30;99.90;;;;;;5096883;28;20820;-61
2023/01/06 11:48:16;;;;;;;11.50;2.30;;;10.40;99.90;;;;;;5114590;28;20481;-60
2023/01/06 11:51:02;;;;;;;21.63;2.30;;;10.30;99.90;;;;;;5114831;28;20401;-60
2023/01/06 11:53:29;;;;;;;7.68;1.38;;;10.30;99.90;;;;;;5114571;28;20028;-60
2023/01/06 11:55:59;;;;;;;10.65;2.53;;;10.30;99.90;;;;;;5114578;28;20078;-61
2023/01/06 11:58:57;;;;;;;10.38;1.60;;;10.30;99.90;;;;;;5096343;28;20040;-61
2023/01/06 12:01:33;;;;;;;18.23;3.03;;;10.30;99.90;;;;;;5114664;28;20036;-60
2023/01/06 12:04:36;;;;;;;9.52;1.70;;;10.30;99.90;;;;;;5114337;28;20032;-61
2023/01/06 12:07:16;;;;;;;10.30;1.75;;;10.30;99.90;;;;;;5114292;28;20044;-61
2023/01/06 12:09:45;;;;;;;11.18;1.52;;;10.20;99.90;;;;;;5114568;28;20039;-61
2023/01/06 12:12:20;;;;;;;12.00;2.42;;;10.20;99.90;;;;;;5114332;28;20039;-61
2023/01/06 12:14:46;;;;;;;10.85;2.30;;;10.20;99.90;;;;;;5114345;28;20062;-61
2023/01/06 12:17:16;;;;;;;13.98;2.97;;;10.10;99.90;;;;;;5113325;28;20490;-61
2023/01/06 12:19:51;;;;;;;10.88;2.25;;;10.20;99.90;;;;;;5114464;28;20404;-61
2023/01/06 12:22:34;;;;;;;11.80;2.53;;;10.10;99.90;;;;;;5114578;28;20080;-61
2023/01/06 12:25:01;;;;;;;13.15;2.22;;;10.10;99.90;;;;;;5114131;28;20044;-60
2023/01/06 12:27:36;;;;;;;10.77;2.05;;;10.10;99.90;;;;;;5093294;28;20051;-62
2023/01/06 12:30:07;;;;;;;10.88;1.60;;;10.10;99.90;;;;;;5111560;28;20031;-61
2023/01/06 12:32:41;;;;;;;9.25;1.63;;;10.00;99.90;;;;;;5112929;28;20070;-60
2023/01/06 12:35:13;;;;;;;8.75;1.83;;;10.00;99.90;;;;;;5113820;28;20537;-61
2023/01/06 12:37:45;;;;;;;9.98;1.92;;;10.00;99.90;;;;;;5113801;28;20131;-61
2023/01/06 12:40:33;;;;;;;10.10;1.75;;;10.00;99.90;;;;;;5113608;28;20526;-61
2023/01/06 12:43:13;;;;;;;11.02;2.00;;;10.00;99.90;;;;;;5113705;28;20409;-61
2023/01/06 12:45:41;;;;;;;11.50;1.95;;;9.90;99.90;;;;;;5113858;28;20435;-61
2023/01/06 12:48:34;;;;;;;16.33;2.90;;;9.90;99.90;;;;;;5113758;28;20122;-60
2023/01/06 12:51:07;;;;;;;15.63;2.78;;;9.80;99.90;;;;;;5113707;28;20546;-61
2023/01/06 12:53:40;;;;;;;12.32;1.90;;;9.80;99.90;;;;;;5113427;28;20498;-61
2023/01/06 12:56:45;;;;;;;8.10;2.45;;;9.80;99.90;;;;;;5113238;28;20036;-60
2023/01/06 12:59:32;;;;;;;8.60;1.65;;;9.90;99.90;;;;;;5113393;28;20477;-61
2023/01/06 13:02:12;;;;;;;13.65;2.03;;;9.90;99.90;;;;;;5113447;28;20397;-61
2023/01/06 13:04:49;;;;;;;12.35;1.70;;;9.90;99.90;;;;;;5113586;28;20035;-61
2023/01/06 13:07:27;;;;;;;7.68;2.22;;;9.90;99.90;;;;;;5078222;28;20128;-61